createdAt,value
2023-04-25T00:02:16.739Z,99602.43
2023-04-25T00:04:44.730Z,99604.50
2023-04-25T00:07:12.303Z,99603.34
2023-04-25T00:09:39.248Z,99598.66
2023-04-25T00:12:06.901Z,99596.53
2023-04-25T00:14:35.304Z,99591.27
2023-04-25T00:17:03.777Z,99587.05
2023-04-25T00:19:30.663Z,99586.66
2023-04-25T00:21:57.457Z,99588.48
2023-04-25T00:24:24.205Z,99586.02
2023-04-25T00:26:51.174Z,99587.55
2023-04-25T00:29:18.086Z,99585.80
2023-04-25T00:31:44.949Z,99588.30
2023-04-25T00:34:11.823Z,99581.67
2023-04-25T00:36:39.248Z,99575.92
2023-04-25T00:39:06.053Z,99573.14
2023-04-25T00:41:33.132Z,99570.30
2023-04-25T00:44:00.436Z,99571.39
2023-04-25T00:46:27.288Z,99571.23
2023-04-25T00:48:54.144Z,99571.45
2023-04-25T00:51:21.842Z,99574.14
2023-04-25T00:53:50.364Z,99581.73
2023-04-25T00:56:17.655Z,99573.64
2023-04-25T00:58:44.423Z,99575.81
2023-04-25T01:01:11.690Z,99573.73
2023-04-25T01:03:42.018Z,99574.27
2023-04-25T01:06:10.339Z,99566.84
2023-04-25T01:08:38.496Z,99568.27
2023-04-25T01:11:05.855Z,99568.31
2023-04-25T01:13:33.121Z,99569.00
2023-04-25T01:16:00.637Z,99569.20
2023-04-25T01:18:27.523Z,99565.27
2023-04-25T01:20:54.781Z,99565.59
2023-04-25T01:23:22.628Z,99566.63
2023-04-25T01:25:49.999Z,99563.21
2023-04-25T01:28:17.322Z,99560.55
2023-04-25T01:30:44.168Z,99559.98
2023-04-25T01:33:11.030Z,99563.94
2023-04-25T01:35:37.778Z,99565.75
2023-04-25T01:38:04.578Z,99564.01
2023-04-25T01:40:33.344Z,99561.18
2023-04-25T01:43:00.175Z,99559.88
2023-04-25T01:45:26.933Z,99554.80
2023-04-25T01:47:53.895Z,99556.52
2023-04-25T01:50:21.307Z,99558.80
2023-04-25T01:52:48.644Z,99555.44
2023-04-25T01:55:15.759Z,99554.27
2023-04-25T01:57:56.871Z,99555.27
2023-04-25T02:00:33.822Z,99552.88
2023-04-25T02:03:00.747Z,99555.96
2023-04-25T02:05:36.664Z,99552.52
2023-04-25T02:08:09.373Z,99548.17
2023-04-25T02:10:36.412Z,99548.02
2023-04-25T02:13:19.463Z,99545.06
2023-04-25T02:15:58.406Z,99536.20
2023-04-25T02:18:27.411Z,99535.63
2023-04-25T02:20:54.269Z,99536.17
2023-04-25T02:23:21.244Z,99531.04
2023-04-25T02:25:48.049Z,99530.98
2023-04-25T02:28:14.899Z,99526.27
2023-04-25T02:30:41.854Z,99525.95
2023-04-25T02:33:08.877Z,99522.48
2023-04-25T02:35:36.457Z,99520.27
2023-04-25T02:38:03.417Z,99520.22
2023-04-25T02:40:30.255Z,99519.26
2023-04-25T02:42:57.369Z,99518.96
2023-04-25T02:45:27.040Z,99521.42
2023-04-25T02:47:53.958Z,99519.91
2023-04-25T02:50:21.019Z,99521.37
2023-04-25T02:52:48.019Z,99521.45
2023-04-25T02:55:19.249Z,99519.58
2023-04-25T02:57:46.437Z,99529.73
2023-04-25T03:00:16.662Z,99533.98
2023-04-25T03:05:58.477Z,99528.45
2023-04-25T03:08:47.394Z,99527.36
2023-04-25T03:11:32.865Z,99529.27
2023-04-25T03:14:19.324Z,99529.97
2023-04-25T03:16:46.384Z,99528.83
2023-04-25T03:19:13.301Z,99532.60
2023-04-25T03:21:40.115Z,99524.54
2023-04-25T03:24:06.944Z,99530.89
2023-04-25T03:26:33.702Z,99526.96
2023-04-25T03:29:00.597Z,99528.46
2023-04-25T03:31:27.940Z,99529.60
2023-04-25T03:33:54.661Z,99524.05
2023-04-25T03:36:22.348Z,99525.40
2023-04-25T03:38:49.478Z,99529.52
2023-04-25T03:41:16.650Z,99529.45
2023-04-25T03:43:47.616Z,99529.08
2023-04-25T03:46:14.842Z,99528.46
2023-04-25T03:48:42.467Z,99525.48
2023-04-25T03:51:10.139Z,99528.88
2023-04-25T03:53:38.694Z,99528.73
2023-04-25T03:56:21.577Z,99522.96
2023-04-25T03:58:52.821Z,99517.98
2023-04-25T04:01:20.601Z,99520.65
2023-04-25T04:03:47.911Z,99523.39
2023-04-25T04:06:15.948Z,99526.41
2023-04-25T04:08:46.069Z,99520.55
2023-04-25T04:11:12.868Z,99516.68
2023-04-25T04:13:39.737Z,99518.63
2023-04-25T04:16:07.339Z,99518.67
2023-04-25T04:18:34.507Z,99523.90
2023-04-25T04:21:02.219Z,99519.58
2023-04-25T04:23:32.159Z,99514.80
2023-04-25T04:25:59.639Z,99513.77
2023-04-25T04:28:29.498Z,99510.21
2023-04-25T04:31:09.122Z,99504.94
2023-04-25T04:33:36.074Z,99506.10
2023-04-25T04:36:05.110Z,99507.06
2023-04-25T04:38:33.155Z,99503.67
2023-04-25T04:41:02.358Z,99498.73
2023-04-25T04:43:40.780Z,99501.64
2023-04-25T04:46:29.789Z,99497.17
2023-04-25T04:49:11.911Z,99498.39
2023-04-25T04:51:57.875Z,99500.76
2023-04-25T04:56:53.454Z,99501.05
2023-04-25T04:59:29.929Z,99499.20
2023-04-25T05:02:05.752Z,99490.02
2023-04-25T05:04:55.467Z,99490.23
2023-04-25T05:07:41.434Z,99491.57
2023-04-25T05:10:27.359Z,99495.70
2023-04-25T05:13:08.269Z,99499.05
2023-04-25T05:15:57.930Z,99499.27
2023-04-25T05:18:43.248Z,99499.30
2023-04-25T05:21:23.956Z,99497.95
2023-04-25T05:24:02.884Z,99496.95
2023-04-25T05:26:48.661Z,99495.84
2023-04-25T05:29:44.810Z,99490.52
2023-04-25T05:32:18.908Z,99490.30
2023-04-25T05:34:47.655Z,99487.86
2023-04-25T05:37:27.710Z,99485.84
2023-04-25T05:40:07.763Z,99480.65
2023-04-25T05:43:10.073Z,99481.34
2023-04-25T05:45:58.154Z,99483.91
2023-04-25T05:48:27.754Z,99484.30
2023-04-25T05:51:00.251Z,99487.77
2023-04-25T05:53:59.532Z,99490.05
2023-04-25T05:56:27.406Z,99487.91
2023-04-25T05:58:54.708Z,99486.91
2023-04-25T06:01:22.561Z,99484.16
2023-04-25T06:03:49.870Z,99480.09
2023-04-25T06:06:17.842Z,99481.19
2023-04-25T06:08:44.699Z,99478.33
2023-04-25T06:11:12.392Z,99474.31
2023-04-25T06:13:39.288Z,99481.19
2023-04-25T06:16:07.517Z,99477.39
2023-04-25T06:18:34.310Z,99479.09
2023-04-25T06:21:01.629Z,99480.55
2023-04-25T06:23:29.023Z,99476.36
2023-04-25T06:26:04.864Z,99473.26
2023-04-25T06:28:32.060Z,99470.27
2023-04-25T06:30:59.851Z,99473.38
2023-04-25T06:33:27.698Z,99472.09
2023-04-25T06:35:54.958Z,99471.54
2023-04-25T06:38:24.733Z,99469.09
2023-04-25T06:40:52.494Z,99465.67
2023-04-25T06:43:19.455Z,99461.61
2023-04-25T06:46:15.707Z,99461.30
2023-04-25T06:48:44.939Z,99460.69
2023-04-25T06:51:11.993Z,99458.54
2023-04-25T06:53:39.230Z,99462.52
2023-04-25T06:56:07.561Z,99454.53
2023-04-25T06:58:46.790Z,99450.67
2023-04-25T07:01:20.973Z,99452.08
2023-04-25T07:03:48.066Z,99452.04
2023-04-25T07:06:17.438Z,99450.21
2023-04-25T07:08:44.320Z,99450.02
2023-04-25T07:11:11.146Z,99451.58
2023-04-25T07:13:38.076Z,99454.74
2023-04-25T07:16:06.062Z,99451.67
2023-04-25T07:18:33.693Z,99446.75
2023-04-25T07:21:00.934Z,99445.12
2023-04-25T07:23:28.509Z,99444.51
2023-04-25T07:25:55.620Z,99444.92
2023-04-25T07:28:22.875Z,99445.15
2023-04-25T07:30:49.584Z,99441.19
2023-04-25T07:33:16.436Z,99442.00
2023-04-25T07:35:44.303Z,99439.02
2023-04-25T07:38:11.817Z,99438.63
2023-04-25T07:40:38.925Z,99444.07
2023-04-25T07:43:07.589Z,99443.42
2023-04-25T07:45:40.319Z,99440.55
2023-04-25T07:48:07.647Z,99433.38
2023-04-25T07:50:36.627Z,99434.67
2023-04-25T07:53:03.635Z,99429.92
2023-04-25T07:55:34.779Z,99427.80
2023-04-25T07:58:10.698Z,99429.11
2023-04-25T08:00:39.124Z,99426.10
2023-04-25T08:03:38.535Z,99421.99
2023-04-25T08:06:09.734Z,99417.85
2023-04-25T08:08:44.352Z,99430.95
2023-04-25T08:11:13.353Z,99421.80
2023-04-25T08:13:40.873Z,99423.83
2023-04-25T08:16:07.824Z,99413.52
2023-04-25T08:18:35.363Z,99410.82
2023-04-25T08:21:02.302Z,99413.86
2023-04-25T08:23:29.102Z,99413.95
2023-04-25T08:26:05.883Z,99414.56
2023-04-25T08:28:33.640Z,99411.43
2023-04-25T08:31:01.009Z,99415.75
2023-04-25T08:33:33.843Z,99410.94
2023-04-25T08:36:31.593Z,99410.09
2023-04-25T08:39:05.543Z,99411.02
2023-04-25T08:41:32.828Z,99407.98
2023-04-25T08:44:01.344Z,99405.73
2023-04-25T08:46:28.352Z,99398.02
2023-04-25T08:49:06.122Z,99392.33
2023-04-25T08:51:33.697Z,99392.21
2023-04-25T08:56:47.725Z,99391.23
2023-04-25T08:59:14.600Z,99389.80
2023-04-25T09:01:42.883Z,99389.35
2023-04-25T09:04:10.304Z,99390.14
2023-04-25T09:06:37.371Z,99385.95
2023-04-25T09:09:06.340Z,99388.31
2023-04-25T09:11:34.317Z,99382.16
2023-04-25T09:14:16.065Z,99374.94
2023-04-25T09:17:05.966Z,99374.89
2023-04-25T09:19:42.629Z,99373.57
2023-04-25T09:22:23.858Z,99366.91
2023-04-25T09:24:52.436Z,99370.88
2023-04-25T09:27:24.062Z,99367.29
2023-04-25T09:30:00.372Z,99368.44
2023-04-25T09:32:28.040Z,99369.92
2023-04-25T09:34:57.196Z,99376.52
2023-04-25T09:37:30.982Z,99368.27
2023-04-25T09:40:27.510Z,99359.84
2023-04-25T09:43:10.460Z,99358.44
2023-04-25T09:45:46.886Z,99361.47
2023-04-25T09:48:24.312Z,99351.64
2023-04-25T09:51:06.774Z,99351.27
2023-04-25T09:53:53.222Z,99350.73
2023-04-25T09:56:40.763Z,99347.55
2023-04-25T09:59:08.362Z,99346.84
2023-04-25T10:01:37.795Z,99343.46
2023-04-25T10:04:24.150Z,99332.83
2023-04-25T10:07:07.367Z,99328.18
2023-04-25T10:09:34.969Z,99321.68
2023-04-25T10:12:03.931Z,99322.38
2023-04-25T10:14:32.149Z,99316.52
2023-04-25T10:16:59.766Z,99314.08
2023-04-25T10:19:27.654Z,99308.31
2023-04-25T10:22:23.780Z,99309.34
2023-04-25T10:24:51.136Z,99307.82
2023-04-25T10:27:17.882Z,99306.65
2023-04-25T10:29:46.505Z,99308.57
2023-04-25T10:32:13.504Z,99312.09
2023-04-25T10:34:47.653Z,99311.40
2023-04-25T10:37:14.512Z,99310.45
2023-04-25T10:39:42.495Z,99311.98
2023-04-25T10:42:09.501Z,99307.59
2023-04-25T10:44:38.004Z,99306.00
2023-04-25T10:47:06.772Z,99305.36
2023-04-25T10:49:38.238Z,99299.33
2023-04-25T10:52:24.030Z,99298.48
2023-04-25T10:54:56.019Z,99296.13
2023-04-25T10:57:40.234Z,99291.05
2023-04-25T11:00:12.192Z,99290.61
2023-04-25T11:02:53.249Z,99291.10
2023-04-25T11:05:21.379Z,99287.23
2023-04-25T11:08:07.053Z,99280.13
2023-04-25T11:10:36.802Z,99276.17
2023-04-25T11:13:03.647Z,99274.00
2023-04-25T11:15:30.824Z,99276.42
2023-04-25T11:17:57.744Z,99280.78
2023-04-25T11:20:27.013Z,99276.66
2023-04-25T11:22:54.027Z,99272.48
2023-04-25T11:25:21.185Z,99265.00
2023-04-25T11:27:52.428Z,99259.46
2023-04-25T11:30:19.804Z,99260.61
2023-04-25T11:32:46.672Z,99261.04
2023-04-25T11:35:13.556Z,99259.77
2023-04-25T11:37:44.678Z,99259.53
2023-04-25T11:40:12.702Z,99258.63
2023-04-25T11:42:48.839Z,99256.90
2023-04-25T11:45:15.851Z,99250.10
2023-04-25T11:47:42.771Z,99250.09
2023-04-25T11:50:10.919Z,99256.71
2023-04-25T11:52:42.180Z,99245.49
2023-04-25T11:55:11.504Z,99245.08
2023-04-25T11:57:39.717Z,99242.72
2023-04-25T12:00:18.884Z,99235.36
2023-04-25T12:02:47.637Z,99226.31
2023-04-25T12:07:49.025Z,99227.76
2023-04-25T12:10:17.128Z,99225.85
2023-04-25T12:12:45.539Z,99223.67
2023-04-25T12:15:16.782Z,99231.38
2023-04-25T12:17:44.483Z,99225.67
2023-04-25T12:20:15.892Z,99220.00
2023-04-25T12:22:45.687Z,99221.42
2023-04-25T12:25:13.984Z,99219.79
2023-04-25T12:27:46.321Z,99216.63
2023-04-25T12:30:13.406Z,99209.84
2023-04-25T12:32:40.708Z,99210.14
2023-04-25T12:35:08.420Z,99208.19
2023-04-25T12:37:35.171Z,99208.94
2023-04-25T12:40:02.028Z,99198.84
2023-04-25T12:42:28.824Z,99197.20
2023-04-25T12:44:55.614Z,99191.48
2023-04-25T12:47:22.476Z,99190.67
2023-04-25T12:49:49.974Z,99183.92
2023-04-25T12:52:16.721Z,99183.27
2023-04-25T12:54:43.592Z,99179.09
2023-04-25T12:57:10.730Z,99174.10
2023-04-25T12:59:37.665Z,99174.09
2023-04-25T13:02:04.687Z,99166.39
2023-04-25T13:04:31.858Z,99159.04
2023-04-25T13:06:58.790Z,99157.55
2023-04-25T13:09:25.549Z,99153.55
2023-04-25T13:11:54.880Z,99150.97
2023-04-25T13:14:24.082Z,99150.39
2023-04-25T13:16:51.069Z,99149.61
2023-04-25T13:19:18.024Z,99143.75
2023-04-25T13:21:44.785Z,99145.08
2023-04-25T13:24:11.615Z,99150.73
2023-04-25T13:26:38.414Z,99146.35
2023-04-25T13:29:05.215Z,99146.73
2023-04-25T13:31:32.214Z,99139.96
2023-04-25T13:33:59.045Z,99142.77
2023-04-25T13:36:25.817Z,99141.30
2023-04-25T13:38:55.677Z,99136.48
2023-04-25T13:41:22.497Z,99130.13
2023-04-25T13:43:49.916Z,99127.33
2023-04-25T13:46:35.531Z,99130.30
2023-04-25T13:49:12.178Z,99130.90
2023-04-25T13:51:43.687Z,99127.09
2023-04-25T13:54:10.999Z,99129.21
2023-04-25T13:56:37.837Z,99128.23
2023-04-25T13:59:04.597Z,99119.26
2023-04-25T14:01:35.118Z,99118.41
2023-04-25T14:04:04.854Z,99118.14
2023-04-25T14:06:33.135Z,99117.09
2023-04-25T14:09:02.114Z,99118.73
2023-04-25T14:11:28.915Z,99114.64
2023-04-25T14:13:55.708Z,99111.72
2023-04-25T14:16:24.109Z,99107.47
2023-04-25T14:18:51.128Z,99102.25
2023-04-25T14:21:17.985Z,99099.52
2023-04-25T14:23:44.729Z,99101.41
2023-04-25T14:26:13.652Z,99103.14
2023-04-25T14:28:40.530Z,99095.03
2023-04-25T14:31:07.307Z,99098.60
2023-04-25T14:33:34.274Z,99095.80
2023-04-25T14:36:01.120Z,99094.17
2023-04-25T14:38:27.910Z,99089.92
2023-04-25T14:40:55.232Z,99090.09
2023-04-25T14:43:22.305Z,99088.89
2023-04-25T14:45:49.233Z,99088.33
2023-04-25T14:48:16.436Z,99087.99
2023-04-25T14:50:43.312Z,99081.09
2023-04-25T14:53:10.075Z,99077.89
2023-04-25T14:55:37.091Z,99080.30
2023-04-25T14:58:03.833Z,99081.50
2023-04-25T15:00:32.758Z,99072.45
2023-04-25T15:03:00.023Z,99074.36
2023-04-25T15:05:27.685Z,99071.56
2023-04-25T15:07:54.445Z,99068.33
2023-04-25T15:10:21.637Z,99067.59
2023-04-25T15:12:48.349Z,99062.75
2023-04-25T15:15:22.808Z,99063.20
2023-04-25T15:17:54.005Z,99058.51
2023-04-25T15:20:22.263Z,99058.56
2023-04-25T15:22:49.842Z,99057.60
2023-04-25T15:25:19.572Z,99053.98
2023-04-25T15:27:49.040Z,99053.23
2023-04-25T15:30:16.759Z,99053.60
2023-04-25T15:32:44.462Z,99056.59
2023-04-25T15:35:11.390Z,99053.21
2023-04-25T15:37:38.295Z,99044.86
2023-04-25T15:40:09.927Z,99041.61
2023-04-25T15:42:37.744Z,99046.98
2023-04-25T15:45:05.418Z,99042.88
2023-04-25T15:47:32.489Z,99042.31
2023-04-25T15:49:59.617Z,99040.70
2023-04-25T15:52:26.403Z,99045.66
2023-04-25T15:54:53.242Z,99040.15
2023-04-25T15:57:20.023Z,99039.80
2023-04-25T15:59:48.964Z,99040.05
2023-04-25T16:02:16.510Z,99037.05
2023-04-25T16:04:43.685Z,99034.23
2023-04-25T16:07:10.915Z,99035.84
2023-04-25T16:09:37.754Z,99035.98
2023-04-25T16:12:04.894Z,99030.39
2023-04-25T16:14:31.779Z,99035.24
2023-04-25T16:17:00.255Z,99032.70
2023-04-25T16:19:27.092Z,99032.05
2023-04-25T16:21:54.164Z,99032.91
2023-04-25T16:24:20.900Z,99034.65
2023-04-25T16:26:47.970Z,99035.61
2023-04-25T16:29:16.886Z,99041.46
2023-04-25T16:31:43.994Z,99040.20
2023-04-25T16:34:12.199Z,99037.76
2023-04-25T16:36:38.948Z,99042.70
2023-04-25T16:39:08.603Z,99038.46
2023-04-25T16:41:35.647Z,99036.79
2023-04-25T16:44:02.447Z,99039.86
2023-04-25T16:46:29.192Z,99034.81
2023-04-25T16:48:56.423Z,99038.34
2023-04-25T16:51:25.219Z,99036.50
2023-04-25T16:53:53.131Z,99038.12
2023-04-25T16:56:20.076Z,99040.95
2023-04-25T16:58:46.827Z,99039.50
2023-04-25T17:01:16.194Z,99033.45
2023-04-25T17:03:43.816Z,99033.98
2023-04-25T17:06:10.709Z,99034.52
2023-04-25T17:08:37.653Z,99032.77
2023-04-25T17:13:44.290Z,99038.30
2023-04-25T17:16:12.403Z,99036.86
2023-04-25T17:18:39.250Z,99034.07
2023-04-25T17:21:06.289Z,99035.95
2023-04-25T17:23:33.654Z,99037.15
2023-04-25T17:26:00.601Z,99039.20
2023-04-25T17:28:27.591Z,99043.91
2023-04-25T17:30:55.106Z,99046.71
2023-04-25T17:33:26.875Z,99049.36
2023-04-25T17:35:54.459Z,99052.56
2023-04-25T17:38:21.725Z,99051.04
2023-04-25T17:40:48.928Z,99051.14
2023-04-25T17:43:16.246Z,99054.70
2023-04-25T17:45:43.074Z,99058.74
2023-04-25T17:48:09.851Z,99063.36
2023-04-25T17:50:36.659Z,99064.91
2023-04-25T17:53:03.716Z,99065.73
2023-04-25T17:55:30.899Z,99065.77
2023-04-25T17:57:57.653Z,99066.75
2023-04-25T18:00:24.895Z,99068.38
2023-04-25T18:02:52.789Z,99069.02
2023-04-25T18:05:20.297Z,99069.53
2023-04-25T18:07:47.247Z,99069.73
2023-04-25T18:10:14.470Z,99066.36
2023-04-25T18:12:41.665Z,99068.55
2023-04-25T18:15:09.333Z,99068.59
2023-04-25T18:17:42.879Z,99067.31
2023-04-25T18:20:14.026Z,99069.82
2023-04-25T18:22:41.129Z,99075.98
2023-04-25T18:25:09.873Z,99076.06
2023-04-25T18:27:40.241Z,99081.55
2023-04-25T18:30:09.045Z,99079.57
2023-04-25T18:32:36.080Z,99077.63
2023-04-25T18:35:03.638Z,99078.26
2023-04-25T18:37:31.147Z,99078.14
2023-04-25T18:39:58.658Z,99081.80
2023-04-25T18:42:25.600Z,99079.99
2023-04-25T18:44:52.962Z,99085.68
2023-04-25T18:47:19.737Z,99083.72
2023-04-25T18:49:47.872Z,99084.36
2023-04-25T18:52:16.170Z,99084.89
2023-04-25T18:54:43.365Z,99081.78
2023-04-25T18:57:14.513Z,99083.02
2023-04-25T18:59:41.774Z,99085.80
2023-04-25T19:02:09.052Z,99087.30
2023-04-25T19:04:36.106Z,99083.55
2023-04-25T19:07:04.205Z,99088.48
2023-04-25T19:09:31.195Z,99091.95
2023-04-25T19:11:57.934Z,99090.77
2023-04-25T19:14:26.051Z,99089.23
2023-04-25T19:16:54.227Z,99092.76
2023-04-25T19:19:21.090Z,99091.89
2023-04-25T19:21:50.613Z,99094.25
2023-04-25T19:24:17.384Z,99091.41
2023-04-25T19:26:44.155Z,99087.34
2023-04-25T19:29:15.057Z,99084.33
2023-04-25T19:31:44.129Z,99086.25
2023-04-25T19:34:11.627Z,99086.05
2023-04-25T19:36:39.266Z,99084.95
2023-04-25T19:39:07.377Z,99087.02
2023-04-25T19:41:39.031Z,99085.06
2023-04-25T19:44:07.631Z,99084.11
2023-04-25T19:46:34.688Z,99081.55
2023-04-25T19:49:01.598Z,99081.23
2023-04-25T19:51:31.366Z,99079.01
2023-04-25T19:53:58.062Z,99078.38
2023-04-25T19:56:24.803Z,99080.75
2023-04-25T19:58:51.892Z,99080.88
2023-04-25T20:01:18.990Z,99077.66
2023-04-25T20:03:48.360Z,99077.16
2023-04-25T20:06:15.342Z,99084.41
2023-04-25T20:08:42.140Z,99081.23
2023-04-25T20:11:09.464Z,99081.56
2023-04-25T20:13:36.743Z,99080.78
2023-04-25T20:16:03.610Z,99082.73
2023-04-25T20:18:30.353Z,99082.63
2023-04-25T20:20:57.141Z,99084.77
2023-04-25T20:23:23.899Z,99089.30
2023-04-25T20:25:50.736Z,99087.88
2023-04-25T20:28:17.900Z,99086.91
2023-04-25T20:30:44.837Z,99091.94
2023-04-25T20:33:11.710Z,99091.73
2023-04-25T20:35:38.507Z,99094.42
2023-04-25T20:38:05.564Z,99085.66
2023-04-25T20:40:32.353Z,99083.95
2023-04-25T20:42:59.133Z,99092.25
2023-04-25T20:45:29.963Z,99088.57
2023-04-25T20:47:56.848Z,99090.30
2023-04-25T20:50:23.736Z,99093.70
2023-04-25T20:52:51.236Z,99093.23
2023-04-25T20:55:18.581Z,99098.09
2023-04-25T20:57:45.622Z,99096.70
2023-04-25T21:00:26.604Z,99102.13
2023-04-25T21:02:53.694Z,99100.04
2023-04-25T21:05:23.573Z,99099.84
2023-04-25T21:07:52.508Z,99103.39
2023-04-25T21:10:19.399Z,99102.75
2023-04-25T21:12:48.124Z,99108.96
2023-04-25T21:15:25.000Z,99108.37
2023-04-25T21:17:52.281Z,99107.75
2023-04-25T21:20:20.525Z,99112.16
2023-04-25T21:22:50.382Z,99109.02
2023-04-25T21:25:20.564Z,99110.58
2023-04-25T21:27:49.385Z,99111.09
2023-04-25T21:30:22.865Z,99109.91
2023-04-25T21:32:53.214Z,99111.21
2023-04-25T21:35:21.098Z,99113.34
2023-04-25T21:37:47.987Z,99110.19
2023-04-25T21:40:15.336Z,99113.11
2023-04-25T21:42:42.576Z,99112.38
2023-04-25T21:45:10.233Z,99109.33
2023-04-25T21:47:37.199Z,99109.44
2023-04-25T21:50:04.756Z,99111.07
2023-04-25T21:52:32.032Z,99108.70
2023-04-25T21:54:58.806Z,99107.92
2023-04-25T21:57:25.615Z,99106.47
2023-04-25T21:59:52.802Z,99105.54
2023-04-25T22:02:19.793Z,99104.18
2023-04-25T22:04:49.920Z,99104.10
2023-04-25T22:07:16.693Z,99103.72
2023-04-25T22:09:54.521Z,99100.19
2023-04-25T22:12:23.634Z,99097.65
2023-04-25T22:14:50.978Z,99102.10
2023-04-25T22:17:18.953Z,99102.14
2023-04-25T22:19:46.906Z,99102.55
2023-04-25T22:22:14.060Z,99104.55
2023-04-25T22:24:42.448Z,99104.78
2023-04-25T22:27:11.040Z,99105.77
2023-04-25T22:29:37.891Z,99101.94
2023-04-25T22:32:05.558Z,99104.06
2023-04-25T22:34:32.318Z,99106.80
2023-04-25T22:36:59.710Z,99101.70
2023-04-25T22:39:26.777Z,99104.27
2023-04-25T22:41:54.420Z,99098.84
2023-04-25T22:44:22.514Z,99101.02
2023-04-25T22:46:49.558Z,99101.45
2023-04-25T22:49:17.391Z,99101.80
2023-04-25T22:51:44.296Z,99101.92
2023-04-25T22:54:11.048Z,99102.54
2023-04-25T22:56:37.866Z,99102.70
2023-04-25T22:59:04.644Z,99099.58
2023-04-25T23:01:31.709Z,99098.38
2023-04-25T23:03:58.817Z,99099.23
2023-04-25T23:06:26.557Z,99099.14
2023-04-25T23:08:53.767Z,99099.34
2023-04-25T23:11:21.821Z,99100.52
2023-04-25T23:13:48.567Z,99097.64
2023-04-25T23:16:15.519Z,99096.77
2023-04-25T23:18:42.404Z,99095.31
2023-04-25T23:21:09.336Z,99093.48
2023-04-25T23:23:36.589Z,99093.73
2023-04-25T23:26:10.202Z,99098.14
2023-04-25T23:28:48.867Z,99091.15
2023-04-25T23:31:15.941Z,99086.92
2023-04-25T23:33:42.840Z,99088.81
2023-04-25T23:36:20.008Z,99084.06
2023-04-25T23:38:47.394Z,99085.07
2023-04-25T23:41:14.323Z,99083.44
2023-04-25T23:43:41.073Z,99084.01
2023-04-25T23:46:09.310Z,99082.16
2023-04-25T23:48:36.375Z,99085.33
2023-04-25T23:51:03.515Z,99081.70
2023-04-25T23:53:30.282Z,99083.14
2023-04-25T23:55:57.009Z,99085.91
2023-04-25T23:58:23.834Z,99092.90
